createdAt,value
2023-01-30T00:02:21.807Z,21.00
2023-01-30T00:04:48.284Z,21.50
2023-01-30T00:07:14.698Z,12.75
2023-01-30T00:09:41.322Z,21.50
2023-01-30T00:12:07.693Z,21.50
2023-01-30T00:14:34.026Z,21.00
2023-01-30T00:17:00.376Z,21.75
2023-01-30T00:19:26.727Z,16.50
2023-01-30T00:21:53.177Z,16.50
2023-01-30T00:24:19.668Z,21.00
2023-01-30T00:26:46.142Z,22.00
2023-01-30T00:29:12.625Z,19.00
2023-01-30T00:31:39.100Z,18.00
2023-01-30T00:34:05.494Z,21.00
2023-01-30T00:36:31.827Z,18.25
2023-01-30T00:38:59.065Z,14.00
2023-01-30T00:41:45.418Z,14.50
2023-01-30T00:44:30.215Z,17.00
2023-01-30T00:47:05.339Z,18.75
2023-01-30T00:49:32.729Z,16.00
2023-01-30T00:51:59.588Z,20.00
2023-01-30T00:54:26.058Z,21.00
2023-01-30T00:56:52.450Z,21.50
2023-01-30T00:59:18.753Z,16.00
2023-01-30T01:01:45.230Z,17.50
2023-01-30T01:04:11.849Z,20.25
2023-01-30T01:06:38.380Z,19.50
2023-01-30T01:09:05.122Z,21.75
2023-01-30T01:11:31.803Z,21.00
2023-01-30T01:13:59.391Z,18.50
2023-01-30T01:16:26.833Z,19.00
2023-01-30T01:18:53.887Z,18.00
2023-01-30T01:21:20.753Z,21.50
2023-01-30T01:23:51.510Z,19.50
2023-01-30T01:26:17.937Z,19.00
2023-01-30T01:28:44.444Z,12.50
2023-01-30T01:31:11.886Z,10.00
2023-01-30T01:33:38.504Z,18.25
2023-01-30T01:36:05.205Z,20.00
2023-01-30T01:38:31.629Z,19.00
2023-01-30T01:41:06.191Z,21.00
2023-01-30T01:43:36.986Z,15.00
2023-01-30T01:46:09.716Z,19.00
2023-01-30T01:48:41.703Z,19.50
2023-01-30T01:51:29.197Z,14.75
2023-01-30T01:54:09.053Z,16.50
2023-01-30T01:56:37.927Z,1.00
2023-01-30T01:59:16.451Z,15.00
2023-01-30T02:01:42.846Z,18.25
2023-01-30T02:04:10.826Z,19.00
2023-01-30T02:06:39.739Z,15.00
2023-01-30T02:09:08.653Z,19.00
2023-01-30T02:11:39.466Z,22.50
2023-01-30T02:14:06.542Z,16.50
2023-01-30T02:16:32.960Z,19.00
2023-01-30T02:18:59.436Z,13.50
2023-01-30T02:21:44.566Z,21.50
2023-01-30T02:24:24.663Z,21.25
2023-01-30T02:27:09.881Z,13.00
2023-01-30T02:29:47.214Z,19.50
2023-01-30T02:32:19.759Z,18.75
2023-01-30T02:35:10.895Z,20.00
2023-01-30T02:37:46.113Z,20.50
2023-01-30T02:40:27.973Z,21.50
2023-01-30T02:42:54.296Z,19.00
2023-01-30T02:45:21.057Z,21.00
2023-01-30T02:47:53.426Z,19.50
2023-01-30T02:50:23.218Z,16.00
2023-01-30T02:52:49.652Z,14.50
2023-01-30T02:55:20.558Z,17.50
2023-01-30T02:57:47.044Z,17.75
2023-01-30T03:00:16.124Z,21.00
2023-01-30T03:02:50.704Z,20.50
2023-01-30T03:05:37.128Z,21.00
2023-01-30T03:08:22.339Z,18.25
2023-01-30T03:10:59.063Z,21.25
2023-01-30T03:13:41.364Z,15.50
2023-01-30T03:16:13.895Z,18.25
2023-01-30T03:18:43.818Z,17.00
2023-01-30T03:21:11.146Z,19.00
2023-01-30T03:23:37.596Z,14.75
2023-01-30T03:26:05.050Z,19.00
2023-01-30T03:28:32.235Z,18.25
2023-01-30T03:30:58.730Z,15.00
2023-01-30T03:33:25.194Z,17.00
2023-01-30T03:35:52.163Z,17.00
2023-01-30T03:38:20.337Z,18.25
2023-01-30T03:40:46.944Z,15.25
2023-01-30T03:43:13.319Z,12.00
2023-01-30T03:45:39.695Z,15.00
2023-01-30T03:48:06.210Z,15.75
2023-01-30T03:50:32.705Z,16.00
2023-01-30T03:52:59.403Z,19.50
2023-01-30T03:55:25.883Z,14.50
2023-01-30T03:57:58.324Z,13.50
2023-01-30T04:00:24.648Z,18.00
2023-01-30T04:02:51.218Z,16.25
2023-01-30T04:05:18.210Z,17.00
2023-01-30T04:07:44.823Z,16.50
2023-01-30T04:10:11.493Z,21.25
2023-01-30T04:12:37.876Z,18.50
2023-01-30T04:15:04.440Z,18.50
2023-01-30T04:17:30.796Z,21.75
2023-01-30T04:19:57.188Z,22.00
2023-01-30T04:22:23.756Z,21.00
2023-01-30T04:24:50.075Z,24.00
2023-01-30T04:27:16.481Z,22.25
2023-01-30T04:29:42.844Z,24.25
2023-01-30T04:32:09.235Z,23.75
2023-01-30T04:34:35.585Z,21.75
2023-01-30T04:37:02.031Z,27.00
2023-01-30T04:39:28.398Z,22.00
2023-01-30T04:41:54.783Z,25.50
2023-01-30T04:44:21.201Z,21.75
2023-01-30T04:46:47.587Z,21.00
2023-01-30T04:49:14.008Z,21.00
2023-01-30T04:51:40.396Z,22.00
2023-01-30T04:54:06.836Z,23.75
2023-01-30T04:56:33.606Z,27.25
2023-01-30T04:59:00.004Z,21.25
2023-01-30T05:01:30.576Z,21.25
2023-01-30T05:03:57.213Z,22.00
2023-01-30T05:06:23.994Z,25.50
2023-01-30T05:08:51.421Z,22.00
2023-01-30T05:11:18.042Z,19.75
2023-01-30T05:13:44.720Z,20.50
2023-01-30T05:16:11.322Z,26.50
2023-01-30T05:18:37.801Z,23.25
2023-01-30T05:21:05.094Z,19.50
2023-01-30T05:23:31.640Z,21.25
2023-01-30T05:25:58.120Z,22.00
2023-01-30T05:28:24.550Z,19.00
2023-01-30T05:30:51.019Z,26.50
2023-01-30T05:33:17.511Z,17.00
2023-01-30T05:35:50.125Z,17.00
2023-01-30T05:38:16.856Z,25.75
2023-01-30T05:40:43.191Z,19.25
2023-01-30T05:43:12.108Z,21.00
2023-01-30T05:45:38.717Z,22.50
2023-01-30T05:48:05.188Z,25.00
2023-01-30T05:50:31.882Z,22.50
2023-01-30T05:52:58.256Z,24.50
2023-01-30T05:55:24.590Z,26.00
2023-01-30T05:57:50.970Z,29.50
2023-01-30T06:00:17.599Z,38.00
2023-01-30T06:02:44.000Z,24.25
2023-01-30T06:05:10.572Z,30.00
2023-01-30T06:07:36.964Z,29.50
2023-01-30T06:10:03.466Z,0.00
2023-01-30T06:12:29.801Z,27.00
2023-01-30T06:14:56.140Z,23.00
2023-01-30T06:17:22.647Z,25.00
2023-01-30T06:19:49.119Z,20.00
2023-01-30T06:22:15.460Z,26.50
2023-01-30T06:24:41.823Z,20.00
2023-01-30T06:27:08.178Z,19.50
2023-01-30T06:29:34.566Z,21.75
2023-01-30T06:32:00.946Z,15.75
2023-01-30T06:34:27.328Z,18.00
2023-01-30T06:36:53.729Z,19.00
2023-01-30T06:39:20.069Z,19.50
2023-01-30T06:41:46.632Z,20.00
2023-01-30T06:44:12.973Z,19.00
2023-01-30T06:46:39.374Z,16.00
2023-01-30T06:49:05.812Z,18.25
2023-01-30T06:51:32.608Z,18.00
2023-01-30T06:53:59.027Z,13.00
2023-01-30T06:56:25.496Z,0.00
2023-01-30T06:58:51.867Z,18.00
2023-01-30T07:01:19.436Z,19.25
2023-01-30T07:03:45.948Z,14.00
2023-01-30T07:06:12.360Z,13.50
2023-01-30T07:08:38.786Z,18.00
2023-01-30T07:11:05.335Z,18.00
2023-01-30T07:13:31.739Z,12.75
2023-01-30T07:15:58.112Z,16.50
2023-01-30T07:18:24.477Z,15.50
2023-01-30T07:20:50.907Z,18.25
2023-01-30T07:23:18.078Z,16.00
2023-01-30T07:25:44.469Z,12.75
2023-01-30T07:28:10.839Z,17.00
2023-01-30T07:30:37.286Z,14.50
2023-01-30T07:33:04.597Z,13.75
2023-01-30T07:35:32.339Z,18.50
2023-01-30T07:37:59.068Z,23.00
2023-01-30T07:40:25.826Z,15.50
2023-01-30T07:43:05.605Z,15.00
2023-01-30T07:45:35.727Z,20.50
2023-01-30T07:48:02.163Z,21.50
2023-01-30T07:50:28.705Z,16.00
2023-01-30T07:52:55.202Z,19.25
2023-01-30T07:55:21.703Z,17.00
2023-01-30T07:57:48.144Z,19.50
2023-01-30T08:00:14.878Z,18.50
2023-01-30T08:02:41.533Z,15.75
2023-01-30T08:05:08.225Z,18.00
2023-01-30T08:07:34.547Z,20.50
2023-01-30T08:10:01.008Z,12.00
2023-01-30T08:12:27.829Z,21.50
2023-01-30T08:14:54.205Z,17.75
2023-01-30T08:17:20.607Z,16.00
2023-01-30T08:19:46.914Z,19.00
2023-01-30T08:22:13.793Z,16.50
2023-01-30T08:24:40.235Z,18.75
2023-01-30T08:27:06.775Z,18.00
2023-01-30T08:29:33.221Z,18.50
2023-01-30T08:32:00.038Z,14.00
2023-01-30T08:34:26.517Z,15.00
2023-01-30T08:36:52.973Z,4.00
2023-01-30T08:39:19.648Z,14.00
2023-01-30T08:41:46.187Z,17.50
2023-01-30T08:44:12.815Z,18.50
2023-01-30T08:46:39.937Z,19.25
2023-01-30T08:49:06.392Z,20.75
2023-01-30T08:51:33.067Z,14.00
2023-01-30T08:53:59.634Z,15.00
2023-01-30T08:56:26.066Z,19.00
2023-01-30T08:58:52.488Z,16.75
2023-01-30T09:01:18.916Z,17.00
2023-01-30T09:03:45.380Z,19.25
2023-01-30T09:06:12.025Z,11.25
2023-01-30T09:08:38.564Z,17.00
2023-01-30T09:11:05.909Z,20.00
2023-01-30T09:13:34.170Z,15.50
2023-01-30T09:16:00.532Z,22.00
2023-01-30T09:18:27.071Z,18.50
2023-01-30T09:21:01.952Z,18.75
2023-01-30T09:23:28.426Z,19.75
2023-01-30T09:25:54.822Z,14.50
2023-01-30T09:28:21.233Z,17.50
2023-01-30T09:30:47.640Z,19.50
2023-01-30T09:33:16.393Z,21.50
2023-01-30T09:35:42.761Z,20.75
2023-01-30T09:38:09.156Z,17.50
2023-01-30T09:40:39.811Z,10.75
2023-01-30T09:43:18.296Z,13.00
2023-01-30T09:45:58.575Z,18.00
2023-01-30T09:48:31.271Z,20.25
2023-01-30T09:51:11.727Z,18.25
2023-01-30T09:54:14.270Z,14.25
2023-01-30T09:56:41.248Z,21.75
2023-01-30T09:59:17.579Z,19.00
2023-01-30T10:01:53.030Z,19.75
2023-01-30T10:04:34.290Z,24.75
2023-01-30T10:07:12.873Z,12.00
2023-01-30T10:09:45.287Z,17.25
2023-01-30T10:12:34.708Z,21.50
2023-01-30T10:15:08.902Z,11.25
2023-01-30T10:17:47.462Z,16.75
2023-01-30T10:20:31.775Z,19.75
2023-01-30T10:23:16.155Z,19.25
2023-01-30T10:25:42.634Z,18.50
2023-01-30T10:28:27.141Z,19.00
2023-01-30T10:30:56.482Z,19.50
2023-01-30T10:33:27.787Z,19.00
2023-01-30T10:36:00.293Z,18.75
2023-01-30T10:38:33.699Z,20.00
2023-01-30T10:41:13.104Z,16.25
2023-01-30T10:43:42.544Z,21.75
2023-01-30T10:46:14.981Z,21.00
2023-01-30T10:48:50.970Z,16.50
2023-01-30T10:51:22.531Z,14.25
2023-01-30T10:54:13.413Z,19.25
2023-01-30T10:57:02.271Z,17.25
2023-01-30T10:59:43.960Z,14.00
2023-01-30T11:02:13.299Z,19.25
2023-01-30T11:04:44.454Z,10.00
2023-01-30T11:07:11.723Z,20.00
2023-01-30T11:09:39.124Z,19.75
2023-01-30T11:12:05.629Z,14.25
2023-01-30T11:14:50.046Z,21.00
2023-01-30T11:17:20.072Z,19.25
2023-01-30T11:19:54.341Z,19.25
2023-01-30T11:22:20.900Z,19.00
2023-01-30T11:24:47.320Z,19.00
2023-01-30T11:27:18.339Z,20.00
2023-01-30T11:29:44.775Z,18.25
2023-01-30T11:32:31.470Z,20.00
2023-01-30T11:35:03.289Z,20.00
2023-01-30T11:37:39.724Z,20.00
2023-01-30T11:40:32.355Z,16.25
2023-01-30T11:43:02.014Z,20.25
2023-01-30T11:45:30.701Z,17.25
2023-01-30T11:48:03.887Z,20.50
2023-01-30T11:50:42.383Z,22.25
2023-01-30T11:53:19.795Z,19.75
2023-01-30T11:56:00.289Z,20.00
2023-01-30T11:58:35.225Z,20.00
2023-01-30T12:01:02.236Z,14.00
2023-01-30T12:03:30.149Z,18.50
2023-01-30T12:05:59.016Z,20.50
2023-01-30T12:08:42.677Z,19.75
2023-01-30T12:11:42.490Z,21.25
2023-01-30T12:14:17.913Z,22.50
2023-01-30T12:16:47.198Z,12.50
2023-01-30T12:19:26.114Z,19.00
2023-01-30T12:22:07.516Z,19.00
2023-01-30T12:24:49.273Z,17.75
2023-01-30T12:27:21.533Z,18.75
2023-01-30T12:30:01.063Z,16.00
2023-01-30T12:32:29.263Z,14.00
2023-01-30T12:34:56.355Z,19.25
2023-01-30T12:37:35.146Z,18.50
2023-01-30T12:40:09.848Z,8.00
2023-01-30T12:42:55.693Z,17.25
2023-01-30T12:45:22.069Z,17.50
2023-01-30T12:47:56.391Z,17.25
2023-01-30T12:50:47.427Z,14.50
2023-01-30T12:53:21.300Z,16.25
2023-01-30T12:55:53.511Z,16.25
2023-01-30T12:58:24.286Z,16.75
2023-01-30T13:01:06.021Z,18.50
2023-01-30T13:03:37.862Z,16.75
2023-01-30T13:06:13.469Z,16.75
2023-01-30T13:08:53.924Z,15.25
2023-01-30T13:11:43.063Z,18.75
2023-01-30T13:14:16.865Z,19.50
2023-01-30T13:16:43.298Z,19.75
2023-01-30T13:19:12.727Z,17.75
2023-01-30T13:21:39.125Z,16.50
2023-01-30T13:24:14.567Z,13.00
2023-01-30T13:26:42.649Z,19.75
2023-01-30T13:29:15.554Z,20.50
2023-01-30T13:31:49.305Z,20.75
2023-01-30T13:34:22.870Z,20.00
2023-01-30T13:36:57.133Z,17.75
2023-01-30T13:39:35.467Z,20.75
2023-01-30T13:42:05.250Z,19.75
2023-01-30T13:44:41.679Z,15.50
2023-01-30T13:47:21.530Z,14.67
2023-01-30T13:50:06.495Z,17.25
2023-01-30T13:52:38.142Z,18.50
2023-01-30T13:55:14.361Z,17.00
2023-01-30T13:58:17.908Z,20.25
2023-01-30T14:00:54.989Z,9.50
2023-01-30T14:03:34.372Z,13.75
2023-01-30T14:06:04.724Z,11.67
2023-01-30T14:08:40.119Z,14.00
2023-01-30T14:11:29.138Z,14.50
2023-01-30T14:14:00.711Z,16.00
2023-01-30T14:16:48.772Z,14.67
2023-01-30T14:19:24.083Z,11.00
2023-01-30T14:22:05.328Z,11.75
2023-01-30T14:24:31.945Z,15.50
2023-01-30T14:26:58.334Z,11.00
2023-01-30T14:29:45.578Z,12.50
2023-01-30T14:32:14.526Z,20.25
2023-01-30T14:34:44.167Z,17.00
2023-01-30T14:37:29.522Z,10.67
2023-01-30T14:39:59.527Z,12.33
2023-01-30T14:42:34.807Z,11.00
2023-01-30T14:45:39.484Z,30.00
2023-01-30T14:48:25.737Z,10.00
2023-01-30T14:51:11.005Z,13.33
2023-01-30T14:53:47.158Z,17.50
2023-01-30T14:56:13.841Z,11.33
2023-01-30T14:58:40.293Z,11.00
2023-01-30T15:01:06.914Z,14.33
2023-01-30T15:03:39.085Z,14.67
2023-01-30T15:06:06.813Z,14.00
2023-01-30T15:08:34.014Z,11.00
2023-01-30T15:11:06.747Z,11.00
2023-01-30T15:13:45.135Z,10.00
2023-01-30T15:16:22.849Z,11.33
2023-01-30T15:18:54.439Z,11.67
2023-01-30T15:21:37.429Z,13.00
2023-01-30T15:24:30.160Z,14.00
2023-01-30T15:27:15.493Z,12.67
2023-01-30T15:30:22.145Z,22.75
2023-01-30T15:32:48.793Z,5.00
2023-01-30T15:35:18.787Z,16.00
2023-01-30T15:37:55.258Z,14.00
2023-01-30T15:40:26.356Z,13.33
2023-01-30T15:43:01.525Z,13.00
2023-01-30T15:45:40.170Z,10.00
2023-01-30T15:48:09.435Z,12.00
2023-01-30T15:50:36.732Z,11.00
2023-01-30T15:53:03.402Z,11.00
2023-01-30T15:55:31.157Z,10.67
2023-01-30T15:58:03.150Z,14.00
2023-01-30T16:00:31.919Z,13.00
2023-01-30T16:03:01.646Z,14.00
2023-01-30T16:05:28.332Z,11.67
2023-01-30T16:07:55.555Z,19.00
2023-01-30T16:10:24.306Z,29.00
2023-01-30T16:12:52.889Z,22.50
2023-01-30T16:15:28.596Z,22.50
2023-01-30T16:18:00.402Z,4.00
2023-01-30T16:20:26.955Z,21.50
2023-01-30T16:22:53.597Z,22.25
2023-01-30T16:25:22.396Z,22.50
2023-01-30T16:27:52.623Z,32.25
2023-01-30T16:30:23.713Z,21.00
2023-01-30T16:32:51.843Z,23.50
2023-01-30T16:35:27.217Z,18.25
2023-01-30T16:37:56.024Z,17.00
2023-01-30T16:40:24.087Z,23.00
2023-01-30T16:42:56.122Z,17.00
2023-01-30T16:45:34.286Z,19.25
2023-01-30T16:48:24.051Z,13.00
2023-01-30T16:51:04.547Z,14.75
2023-01-30T16:53:32.417Z,10.75
2023-01-30T16:56:00.408Z,9.33
2023-01-30T16:58:32.391Z,13.50
2023-01-30T17:01:01.028Z,12.50
2023-01-30T17:03:31.536Z,13.75
2023-01-30T17:05:58.824Z,3.00
2023-01-30T17:08:31.326Z,14.25
2023-01-30T17:10:58.886Z,12.00
2023-01-30T17:13:32.260Z,13.00
2023-01-30T17:16:17.363Z,11.00
2023-01-30T17:18:46.639Z,12.00
2023-01-30T17:21:13.619Z,12.33
2023-01-30T17:23:42.423Z,10.50
2023-01-30T17:26:11.488Z,15.50
2023-01-30T17:28:39.696Z,13.25
2023-01-30T17:31:06.231Z,11.00
2023-01-30T17:33:32.827Z,10.00
2023-01-30T17:36:01.900Z,11.00
2023-01-30T17:38:28.275Z,8.67
2023-01-30T17:40:54.585Z,5.00
2023-01-30T17:43:20.947Z,7.33
2023-01-30T17:45:48.234Z,7.67
2023-01-30T17:48:14.609Z,10.00
2023-01-30T17:50:41.360Z,16.00
2023-01-30T17:53:07.864Z,14.50
2023-01-30T17:55:34.560Z,10.67
2023-01-30T17:58:01.472Z,10.00
2023-01-30T18:00:28.690Z,11.00
2023-01-30T18:02:55.109Z,15.25
2023-01-30T18:05:22.463Z,13.00
2023-01-30T18:07:48.826Z,13.00
2023-01-30T18:10:17.434Z,10.67
2023-01-30T18:12:45.456Z,11.00
2023-01-30T18:15:12.923Z,13.75
2023-01-30T18:17:42.493Z,11.50
2023-01-30T18:20:09.736Z,7.67
2023-01-30T18:22:36.138Z,8.00
2023-01-30T18:25:02.497Z,10.00
2023-01-30T18:27:29.033Z,13.00
2023-01-30T18:29:55.474Z,10.00
2023-01-30T18:32:21.861Z,10.00
2023-01-30T18:34:48.372Z,5.00
2023-01-30T18:37:14.825Z,11.00
2023-01-30T18:39:41.637Z,4.00
2023-01-30T18:42:08.199Z,10.25
2023-01-30T18:44:36.203Z,11.00
2023-01-30T18:47:02.660Z,7.00
2023-01-30T18:49:30.089Z,10.33
2023-01-30T18:51:56.579Z,8.50
2023-01-30T18:54:26.829Z,5.00
2023-01-30T18:56:53.192Z,4.67
2023-01-30T18:59:19.689Z,9.50
2023-01-30T19:01:46.764Z,8.67
2023-01-30T19:04:13.288Z,10.00
2023-01-30T19:06:40.930Z,10.00
2023-01-30T19:09:07.789Z,7.00
2023-01-30T19:11:52.896Z,8.00
2023-01-30T19:14:19.361Z,7.00
2023-01-30T19:16:45.948Z,4.00
2023-01-30T19:19:12.487Z,7.00
2023-01-30T19:21:39.001Z,6.33
2023-01-30T19:24:06.842Z,8.00
2023-01-30T19:26:33.647Z,7.33
2023-01-30T19:29:02.376Z,7.33
2023-01-30T19:31:31.777Z,7.33
2023-01-30T19:34:00.742Z,7.00
2023-01-30T19:36:28.187Z,7.00
2023-01-30T19:38:55.029Z,7.33
2023-01-30T19:41:23.441Z,7.67
2023-01-30T19:43:49.998Z,8.00
2023-01-30T19:46:16.669Z,7.33
2023-01-30T19:48:43.911Z,8.00
2023-01-30T19:51:30.633Z,7.67
2023-01-30T19:54:07.488Z,8.00
2023-01-30T19:56:34.127Z,10.33
2023-01-30T19:59:01.036Z,8.00
2023-01-30T20:01:29.845Z,8.00
2023-01-30T20:03:56.683Z,10.00
2023-01-30T20:06:24.450Z,12.00
2023-01-30T20:08:54.014Z,11.00
2023-01-30T20:11:23.527Z,9.33
2023-01-30T20:13:50.741Z,8.67
2023-01-30T20:16:20.408Z,7.00
2023-01-30T20:18:48.254Z,13.75
2023-01-30T20:21:18.858Z,7.00
2023-01-30T20:23:45.566Z,7.00
2023-01-30T20:26:16.629Z,5.67
2023-01-30T20:28:43.667Z,4.00
2023-01-30T20:31:13.787Z,10.00
2023-01-30T20:33:40.445Z,12.50
2023-01-30T20:36:08.599Z,3.33
2023-01-30T20:38:36.128Z,10.67
2023-01-30T20:41:03.832Z,8.33
2023-01-30T20:43:33.509Z,11.50
2023-01-30T20:46:07.176Z,8.67
2023-01-30T20:48:34.206Z,4.75
2023-01-30T20:51:04.543Z,11.00
2023-01-30T20:53:30.921Z,10.00
2023-01-30T20:55:58.563Z,9.75
2023-01-30T20:58:25.285Z,10.00
2023-01-30T21:00:51.776Z,14.50
2023-01-30T21:03:18.429Z,13.50
2023-01-30T21:05:44.795Z,14.00
2023-01-30T21:08:11.186Z,15.00
2023-01-30T21:10:38.096Z,11.25
2023-01-30T21:13:51.545Z,16.00
2023-01-30T21:16:17.925Z,18.25
2023-01-30T21:19:31.296Z,22.75
2023-01-30T21:21:58.310Z,16.00
2023-01-30T21:24:26.274Z,20.25
2023-01-30T21:26:53.126Z,16.00
2023-01-30T21:29:21.139Z,20.75
2023-01-30T21:31:47.573Z,17.25
2023-01-30T21:34:14.245Z,20.75
2023-01-30T21:36:41.223Z,16.50
2023-01-30T21:39:26.170Z,19.00
2023-01-30T21:42:01.476Z,19.00
2023-01-30T21:44:29.069Z,41.25
2023-01-30T21:46:55.870Z,19.25
2023-01-30T21:49:22.597Z,26.25
2023-01-30T21:51:49.704Z,27.25
2023-01-30T21:54:16.687Z,19.75
2023-01-30T21:56:43.622Z,27.00
2023-01-30T21:59:10.561Z,26.00
2023-01-30T22:01:37.823Z,23.00
2023-01-30T22:04:05.657Z,22.00
2023-01-30T22:06:32.306Z,19.00
2023-01-30T22:08:59.857Z,23.00
2023-01-30T22:11:26.483Z,22.50
2023-01-30T22:13:53.593Z,24.75
2023-01-30T22:16:21.543Z,23.75
2023-01-30T22:18:51.551Z,21.25
2023-01-30T22:21:19.342Z,21.75
2023-01-30T22:23:46.940Z,19.25
2023-01-30T22:26:14.498Z,25.50
2023-01-30T22:28:40.902Z,22.75
2023-01-30T22:31:08.768Z,20.75
2023-01-30T22:33:36.355Z,16.00
2023-01-30T22:36:05.103Z,16.00
2023-01-30T22:38:31.736Z,14.00
2023-01-30T22:41:07.135Z,14.00
2023-01-30T22:43:34.153Z,16.75
2023-01-30T22:46:01.562Z,17.00
2023-01-30T22:48:28.742Z,20.25
2023-01-30T22:51:02.578Z,20.50
2023-01-30T22:53:32.612Z,19.75
2023-01-30T22:56:06.800Z,16.33
2023-01-30T22:58:33.418Z,13.33
2023-01-30T23:01:06.811Z,7.67
2023-01-30T23:03:33.396Z,9.33
2023-01-30T23:06:00.603Z,11.67
2023-01-30T23:08:29.242Z,10.67
2023-01-30T23:10:55.672Z,10.00
2023-01-30T23:13:22.109Z,11.50
2023-01-30T23:15:48.590Z,4.33
2023-01-30T23:18:33.592Z,8.67
2023-01-30T23:21:00.319Z,14.00
2023-01-30T23:23:26.763Z,12.00
2023-01-30T23:25:53.166Z,10.67
2023-01-30T23:28:19.537Z,8.67
2023-01-30T23:30:45.929Z,10.67
2023-01-30T23:33:12.419Z,10.33
2023-01-30T23:35:38.941Z,11.67
2023-01-30T23:38:19.233Z,2.00
2023-01-30T23:40:47.077Z,5.00
2023-01-30T23:43:14.036Z,7.33
2023-01-30T23:45:40.554Z,10.33
2023-01-30T23:48:08.928Z,10.00
2023-01-30T23:50:37.628Z,10.67
2023-01-30T23:53:04.760Z,11.00
2023-01-30T23:55:32.602Z,13.67
2023-01-30T23:57:59.893Z,10.00
